createdAt,value
2019-05-22T00:00:30.897Z,99.90
2019-05-22T00:03:04.648Z,99.90
2019-05-22T00:05:35.540Z,99.90
2019-05-22T00:08:04.339Z,99.90
2019-05-22T00:10:33.812Z,99.90
2019-05-22T00:13:03.677Z,99.90
2019-05-22T00:15:33.563Z,99.90
2019-05-22T00:18:03.561Z,99.90
2019-05-22T00:20:31.804Z,99.90
2019-05-22T00:23:00.067Z,99.90
2019-05-22T00:25:33.105Z,99.90
2019-05-22T00:28:00.080Z,99.90
2019-05-22T00:30:29.936Z,99.90
2019-05-22T00:32:59.804Z,99.90
2019-05-22T00:35:29.004Z,99.90
2019-05-22T00:37:57.857Z,99.90
2019-05-22T00:40:28.882Z,99.90
2019-05-22T00:43:04.105Z,99.90
2019-05-22T00:45:28.676Z,99.90
2019-05-22T00:47:57.442Z,99.90
2019-05-22T00:50:32.862Z,99.90
2019-05-22T00:53:02.428Z,99.90
2019-05-22T00:55:48.419Z,99.90
2019-05-22T00:58:21.168Z,99.90
2019-05-22T01:00:53.830Z,99.90
2019-05-22T01:03:29.706Z,99.90
2019-05-22T01:05:58.996Z,99.90
2019-05-22T01:08:28.573Z,99.90
2019-05-22T01:10:57.638Z,99.90
2019-05-22T01:13:29.478Z,99.90
2019-05-22T01:15:58.554Z,99.90
2019-05-22T01:18:28.424Z,99.90
2019-05-22T01:20:58.948Z,99.90
2019-05-22T01:23:29.776Z,99.90
2019-05-22T01:26:00.000Z,99.90
2019-05-22T01:28:30.166Z,99.90
2019-05-22T01:31:02.502Z,99.90
2019-05-22T01:33:32.384Z,99.90
2019-05-22T01:36:02.241Z,99.90
2019-05-22T01:38:31.217Z,99.90
2019-05-22T01:41:01.080Z,99.90
2019-05-22T01:43:29.561Z,99.90
2019-05-22T01:45:59.501Z,99.90
2019-05-22T01:48:38.236Z,99.90
2019-05-22T01:51:07.137Z,99.90
2019-05-22T01:53:38.645Z,99.90
2019-05-22T01:56:07.867Z,99.90
2019-05-22T01:58:37.346Z,99.90
2019-05-22T02:01:07.204Z,99.90
2019-05-22T02:03:36.546Z,99.90
2019-05-22T02:06:06.081Z,99.90
2019-05-22T02:08:37.742Z,99.90
2019-05-22T02:11:07.058Z,99.90
2019-05-22T02:13:38.807Z,99.90
2019-05-22T02:16:08.971Z,99.90
2019-05-22T02:18:39.215Z,99.90
2019-05-22T02:21:07.444Z,99.90
2019-05-22T02:23:37.316Z,99.90
2019-05-22T02:26:07.174Z,99.90
2019-05-22T02:28:37.008Z,99.90
2019-05-22T02:31:06.901Z,99.90
2019-05-22T02:33:37.692Z,99.90
2019-05-22T02:36:06.631Z,99.90
2019-05-22T02:38:35.494Z,99.90
2019-05-22T02:41:04.271Z,99.90
2019-05-22T02:43:32.553Z,99.90
2019-05-22T02:46:01.717Z,99.90
2019-05-22T02:48:31.394Z,99.90
2019-05-22T02:50:59.672Z,99.90
2019-05-22T02:53:28.461Z,99.90
2019-05-22T02:55:57.142Z,99.90
2019-05-22T02:58:27.014Z,99.90
2019-05-22T03:00:58.242Z,99.90
2019-05-22T03:03:26.761Z,99.90
2019-05-22T03:05:56.195Z,99.90
2019-05-22T03:08:27.066Z,99.90
2019-05-22T03:10:56.953Z,99.90
2019-05-22T03:13:29.507Z,99.90
2019-05-22T03:15:59.376Z,99.90
2019-05-22T03:18:28.061Z,99.90
2019-05-22T03:20:56.274Z,99.90
2019-05-22T03:23:34.300Z,99.90
2019-05-22T03:26:02.585Z,99.90
2019-05-22T03:28:30.868Z,99.90
2019-05-22T03:30:59.342Z,99.90
2019-05-22T03:33:29.357Z,99.90
2019-05-22T03:36:05.045Z,99.90
2019-05-22T03:38:34.303Z,99.90
2019-05-22T03:41:03.989Z,99.90
2019-05-22T03:43:32.207Z,99.90
2019-05-22T03:46:05.313Z,99.90
2019-05-22T03:48:35.169Z,99.90
2019-05-22T03:51:11.089Z,99.90
2019-05-22T03:53:39.773Z,99.90
2019-05-22T03:56:08.064Z,99.90
2019-05-22T03:58:36.645Z,99.90
2019-05-22T04:01:06.527Z,99.90
2019-05-22T04:03:35.769Z,99.90
2019-05-22T04:06:05.230Z,99.90
2019-05-22T04:08:33.908Z,99.90
2019-05-22T04:11:03.415Z,99.90
2019-05-22T04:13:32.658Z,99.90
2019-05-22T04:16:05.430Z,99.90
2019-05-22T04:18:35.369Z,99.90
2019-05-22T04:21:04.057Z,99.90
2019-05-22T04:23:32.378Z,99.90
2019-05-22T04:26:01.703Z,99.90
2019-05-22T04:28:30.793Z,99.90
2019-05-22T04:31:00.168Z,99.90
2019-05-22T04:33:30.639Z,99.90
2019-05-22T04:35:59.485Z,99.90
2019-05-22T04:38:27.942Z,99.90
2019-05-22T04:40:56.627Z,99.90
2019-05-22T04:43:25.189Z,99.90
2019-05-22T04:45:54.073Z,99.90
2019-05-22T04:48:22.426Z,99.90
2019-05-22T04:50:51.525Z,99.90
2019-05-22T04:53:19.742Z,99.90
2019-05-22T04:55:48.184Z,99.90
2019-05-22T04:58:18.049Z,99.90
2019-05-22T05:00:46.254Z,99.90
2019-05-22T05:03:15.541Z,99.90
2019-05-22T05:05:51.111Z,99.90
2019-05-22T05:08:19.382Z,99.90
2019-05-22T05:10:49.371Z,99.90
2019-05-22T05:13:18.111Z,99.90
2019-05-22T05:15:46.348Z,99.90
2019-05-22T05:18:14.543Z,99.90
2019-05-22T05:20:43.808Z,99.90
2019-05-22T05:23:12.385Z,99.90
2019-05-22T05:25:40.607Z,99.90
2019-05-22T05:28:10.456Z,99.90
2019-05-22T05:30:38.946Z,99.90
2019-05-22T05:33:07.154Z,99.90
2019-05-22T05:35:36.245Z,99.90
2019-05-22T05:38:04.717Z,99.90
2019-05-22T05:40:40.275Z,99.90
2019-05-22T05:43:09.894Z,99.90
2019-05-22T05:45:40.092Z,99.90
2019-05-22T05:48:10.236Z,99.90
2019-05-22T05:50:40.657Z,99.90
2019-05-22T05:53:09.909Z,99.90
2019-05-22T05:56:02.381Z,99.90
2019-05-22T05:58:30.751Z,99.90
2019-05-22T06:01:06.665Z,99.90
2019-05-22T06:03:37.847Z,99.90
2019-05-22T06:06:24.302Z,99.90
2019-05-22T06:08:53.296Z,99.90
2019-05-22T06:11:43.320Z,99.90
2019-05-22T06:14:29.803Z,99.90
2019-05-22T06:17:04.808Z,99.90
2019-05-22T06:19:33.319Z,99.90
2019-05-22T06:22:01.578Z,99.90
2019-05-22T06:24:36.648Z,99.90
2019-05-22T06:27:16.287Z,99.90
2019-05-22T06:29:51.385Z,99.90
2019-05-22T06:32:39.169Z,99.90
2019-05-22T06:35:07.660Z,99.90
2019-05-22T06:37:44.699Z,99.90
2019-05-22T06:40:14.684Z,99.90
2019-05-22T06:42:44.802Z,99.90
2019-05-22T06:45:13.100Z,99.90
2019-05-22T06:47:41.569Z,99.90
2019-05-22T06:50:09.776Z,99.90
2019-05-22T06:52:38.005Z,99.90
2019-05-22T06:55:06.923Z,99.90
2019-05-22T06:57:35.139Z,99.70
2019-05-22T07:00:14.294Z,99.90
2019-05-22T07:02:36.410Z,99.90
2019-05-22T07:05:05.792Z,99.90
2019-05-22T07:07:34.364Z,99.80
2019-05-22T07:10:03.643Z,99.20
2019-05-22T07:12:32.928Z,99.30
2019-05-22T07:15:08.954Z,98.90
2019-05-22T07:17:37.338Z,99.20
2019-05-22T07:20:06.522Z,98.70
2019-05-22T07:22:35.337Z,98.70
2019-05-22T07:25:05.955Z,98.20
2019-05-22T07:27:33.677Z,98.20
2019-05-22T07:30:02.540Z,98.60
2019-05-22T07:32:31.230Z,98.40
2019-05-22T07:34:59.513Z,98.30
2019-05-22T07:37:27.717Z,98.70
2019-05-22T07:39:55.929Z,98.70
2019-05-22T07:42:24.159Z,97.60
2019-05-22T07:44:52.441Z,98.30
2019-05-22T07:47:21.892Z,98.70
2019-05-22T07:49:50.156Z,98.20
2019-05-22T07:52:18.378Z,98.10
2019-05-22T07:54:46.634Z,97.90
2019-05-22T07:57:20.682Z,97.80
2019-05-22T07:59:49.068Z,98.00
2019-05-22T08:02:17.637Z,97.80
2019-05-22T08:04:45.856Z,97.40
2019-05-22T08:07:15.628Z,97.50
2019-05-22T08:09:43.871Z,96.60
2019-05-22T08:12:12.801Z,97.00
2019-05-22T08:14:41.038Z,97.40
2019-05-22T08:17:09.264Z,97.40
2019-05-22T08:19:37.539Z,97.00
2019-05-22T08:22:07.584Z,97.30
2019-05-22T08:24:35.752Z,97.10
2019-05-22T08:27:05.092Z,96.70
2019-05-22T08:29:33.295Z,96.30
2019-05-22T08:32:01.503Z,96.00
2019-05-22T08:34:30.073Z,96.50
2019-05-22T08:36:58.456Z,95.90
2019-05-22T08:39:27.335Z,95.10
2019-05-22T08:41:55.560Z,95.30
2019-05-22T08:44:23.940Z,94.90
2019-05-22T08:46:52.176Z,95.40
2019-05-22T08:49:20.399Z,95.10
2019-05-22T08:51:48.736Z,95.40
2019-05-22T08:54:17.889Z,94.70
2019-05-22T08:56:48.364Z,95.40
2019-05-22T08:59:19.891Z,95.40
2019-05-22T09:01:47.923Z,95.30
2019-05-22T09:04:16.201Z,95.20
2019-05-22T09:06:44.480Z,95.40
2019-05-22T09:09:12.755Z,95.20
2019-05-22T09:11:41.019Z,94.90
2019-05-22T09:14:09.340Z,94.80
2019-05-22T09:16:37.532Z,94.50
2019-05-22T09:19:06.438Z,95.20
2019-05-22T09:21:35.351Z,94.60
2019-05-22T09:24:05.244Z,93.80
2019-05-22T09:26:33.452Z,93.40
2019-05-22T09:29:01.948Z,93.00
2019-05-22T09:31:30.164Z,93.50
2019-05-22T09:33:58.865Z,93.10
2019-05-22T09:36:27.115Z,92.10
2019-05-22T09:38:55.321Z,92.60
2019-05-22T09:41:23.536Z,91.90
2019-05-22T09:43:51.731Z,90.50
2019-05-22T09:46:20.023Z,90.20
2019-05-22T09:48:48.501Z,90.60
2019-05-22T09:51:16.783Z,91.10
2019-05-22T09:56:13.215Z,91.80
2019-05-22T09:58:41.481Z,92.20
2019-05-22T10:01:12.157Z,92.30
2019-05-22T10:03:40.448Z,92.70
2019-05-22T10:06:09.125Z,92.60
2019-05-22T10:08:37.514Z,92.80
2019-05-22T10:11:05.722Z,92.40
2019-05-22T10:13:34.410Z,92.00
2019-05-22T10:16:02.648Z,92.10
2019-05-22T10:18:30.916Z,91.90
2019-05-22T10:20:59.450Z,91.20
2019-05-22T10:23:28.356Z,91.00
2019-05-22T10:25:56.563Z,91.10
2019-05-22T10:28:24.859Z,91.40
2019-05-22T10:30:54.210Z,91.40
2019-05-22T10:33:23.213Z,90.70
2019-05-22T10:35:52.319Z,90.20
2019-05-22T10:38:20.522Z,90.00
2019-05-22T10:40:48.737Z,88.50
2019-05-22T10:43:17.214Z,86.00
2019-05-22T10:45:46.184Z,84.70
2019-05-22T10:48:14.388Z,83.80
2019-05-22T10:50:42.871Z,81.60
2019-05-22T10:53:11.089Z,78.90
2019-05-22T10:55:39.565Z,77.70
2019-05-22T10:58:07.939Z,78.60
2019-05-22T11:00:36.855Z,77.10
2019-05-22T11:03:05.411Z,77.50
2019-05-22T11:05:34.396Z,77.70
2019-05-22T11:08:02.679Z,76.80
2019-05-22T11:10:31.247Z,77.20
2019-05-22T11:13:00.799Z,78.00
2019-05-22T11:15:29.803Z,76.70
2019-05-22T11:17:58.053Z,77.00
2019-05-22T11:20:26.276Z,77.30
2019-05-22T11:22:54.489Z,75.80
2019-05-22T11:25:23.274Z,74.90
2019-05-22T11:27:52.486Z,71.80
2019-05-22T11:30:20.707Z,72.30
2019-05-22T11:32:48.982Z,70.50
2019-05-22T11:35:17.187Z,70.70
2019-05-22T11:37:45.473Z,65.50
2019-05-22T11:40:14.109Z,59.50
2019-05-22T11:45:13.016Z,56.70
2019-05-22T11:47:41.284Z,58.90
2019-05-22T11:50:11.902Z,57.10
2019-05-22T11:52:40.562Z,59.00
2019-05-22T11:55:09.157Z,57.50
2019-05-22T11:57:38.824Z,59.50
2019-05-22T12:00:09.360Z,60.30
2019-05-22T12:02:38.696Z,61.50
2019-05-22T12:05:07.257Z,59.90
2019-05-22T12:07:36.400Z,59.90
2019-05-22T12:10:05.823Z,57.70
2019-05-22T12:12:35.455Z,58.10
2019-05-22T12:15:07.000Z,59.00
2019-05-22T12:17:38.510Z,60.60
2019-05-22T12:20:10.089Z,60.70
2019-05-22T12:22:38.584Z,60.20
2019-05-22T12:25:09.013Z,60.00
2019-05-22T12:27:37.296Z,60.20
2019-05-22T12:30:07.994Z,61.50
2019-05-22T12:32:36.286Z,58.70
2019-05-22T12:35:06.224Z,59.10
2019-05-22T12:37:35.045Z,59.00
2019-05-22T12:40:04.994Z,59.10
2019-05-22T12:42:33.192Z,58.50
2019-05-22T12:45:01.420Z,58.00
2019-05-22T12:47:30.263Z,59.90
2019-05-22T12:49:58.473Z,59.80
2019-05-22T12:52:26.953Z,60.10
2019-05-22T12:54:55.164Z,59.50
2019-05-22T12:57:23.643Z,58.70
2019-05-22T12:59:52.496Z,55.10
2019-05-22T13:02:20.703Z,56.60
2019-05-22T13:04:49.191Z,57.90
2019-05-22T13:07:17.538Z,60.00
2019-05-22T13:09:45.769Z,60.60
2019-05-22T13:12:14.657Z,59.10
2019-05-22T13:14:43.420Z,54.20
2019-05-22T13:17:12.620Z,52.60
2019-05-22T13:19:41.561Z,51.40
2019-05-22T13:22:12.542Z,52.90
2019-05-22T13:24:40.743Z,52.50
2019-05-22T13:27:11.299Z,49.10
2019-05-22T13:29:40.561Z,48.00
2019-05-22T13:32:08.915Z,47.80
2019-05-22T13:34:37.588Z,50.10
2019-05-22T13:37:06.409Z,53.50
2019-05-22T13:39:34.897Z,52.00
2019-05-22T13:42:03.173Z,51.10
2019-05-22T13:44:31.390Z,51.20
2019-05-22T13:46:59.588Z,52.10
2019-05-22T13:49:29.460Z,52.00
2019-05-22T13:51:57.656Z,53.40
2019-05-22T13:54:26.234Z,49.90
2019-05-22T13:56:55.094Z,48.00
2019-05-22T13:59:23.583Z,49.10
2019-05-22T14:01:51.861Z,46.00
2019-05-22T14:04:20.076Z,46.50
2019-05-22T14:06:48.452Z,47.80
2019-05-22T14:09:21.159Z,44.60
2019-05-22T14:11:49.104Z,44.40
2019-05-22T14:14:17.308Z,44.30
2019-05-22T14:16:48.989Z,43.80
2019-05-22T14:19:15.463Z,42.00
2019-05-22T14:21:50.967Z,43.60
2019-05-22T14:24:13.627Z,46.60
2019-05-22T14:26:42.012Z,47.50
2019-05-22T14:29:10.236Z,48.80
2019-05-22T14:31:38.450Z,47.20
2019-05-22T14:34:07.133Z,46.70
2019-05-22T14:36:35.811Z,46.70
2019-05-22T14:39:07.239Z,45.40
2019-05-22T14:41:35.446Z,44.40
2019-05-22T14:44:03.666Z,45.20
2019-05-22T14:46:32.052Z,46.00
2019-05-22T14:49:00.267Z,44.80
2019-05-22T14:51:28.539Z,46.40
2019-05-22T14:53:57.046Z,46.00
2019-05-22T14:56:25.233Z,44.40
2019-05-22T14:58:54.073Z,45.90
2019-05-22T15:01:22.276Z,47.00
2019-05-22T15:03:50.552Z,48.50
2019-05-22T15:06:19.291Z,48.40
2019-05-22T15:11:16.733Z,53.80
2019-05-22T15:13:45.208Z,54.40
2019-05-22T15:16:13.692Z,54.70
2019-05-22T15:18:41.990Z,55.40
2019-05-22T15:21:11.269Z,54.00
2019-05-22T15:23:39.885Z,52.00
2019-05-22T15:26:08.167Z,51.20
2019-05-22T15:28:36.440Z,52.00
2019-05-22T15:31:04.652Z,52.20
2019-05-22T15:33:33.951Z,53.60
2019-05-22T15:36:06.716Z,54.70
2019-05-22T15:38:36.377Z,55.70
2019-05-22T15:41:04.940Z,56.60
2019-05-22T15:43:33.326Z,57.10
2019-05-22T15:46:02.494Z,56.30
2019-05-22T15:48:31.498Z,54.60
2019-05-22T15:51:03.740Z,50.60
2019-05-22T15:53:32.315Z,51.60
2019-05-22T15:56:04.208Z,51.50
2019-05-22T15:58:33.741Z,54.20
2019-05-22T16:01:02.756Z,56.00
2019-05-22T16:03:30.958Z,55.90
2019-05-22T16:05:59.644Z,57.50
2019-05-22T16:08:28.557Z,55.00
2019-05-22T16:11:00.010Z,52.20
2019-05-22T16:13:26.713Z,48.50
2019-05-22T16:15:55.532Z,48.40
2019-05-22T16:18:29.268Z,49.20
2019-05-22T16:20:59.108Z,51.40
2019-05-22T16:23:28.834Z,51.80
2019-05-22T16:25:57.048Z,55.50
2019-05-22T16:28:25.420Z,55.50
2019-05-22T16:30:53.634Z,59.00
2019-05-22T16:33:22.848Z,62.00
2019-05-22T16:35:51.033Z,60.30
2019-05-22T16:38:19.628Z,55.40
2019-05-22T16:40:47.915Z,56.00
2019-05-22T16:43:16.204Z,55.50
2019-05-22T16:45:44.500Z,57.70
2019-05-22T16:48:27.663Z,58.60
2019-05-22T16:50:42.932Z,58.20
2019-05-22T16:53:11.992Z,58.60
